createdAt,value
2019-05-14T00:02:15.650Z,2.45
2019-05-14T00:04:46.116Z,3.50
2019-05-14T00:07:16.638Z,2.50
2019-05-14T00:09:47.401Z,2.17
2019-05-14T00:12:18.114Z,2.20
2019-05-14T00:14:51.425Z,2.70
2019-05-14T00:17:21.487Z,2.00
2019-05-14T00:20:05.960Z,2.20
2019-05-14T00:22:24.159Z,2.20
2019-05-14T00:24:54.773Z,2.20
2019-05-14T00:27:25.255Z,2.30
2019-05-14T00:29:55.785Z,2.30
2019-05-14T00:32:26.860Z,2.00
2019-05-14T00:34:57.256Z,2.20
2019-05-14T00:37:28.081Z,2.10
2019-05-14T00:39:58.518Z,2.67
2019-05-14T00:42:28.883Z,3.12
2019-05-14T00:45:01.196Z,2.15
2019-05-14T00:47:31.791Z,2.12
2019-05-14T00:50:02.666Z,2.15
2019-05-14T00:52:33.514Z,2.15
2019-05-14T00:55:04.642Z,2.33
2019-05-14T00:57:35.360Z,1.70
2019-05-14T01:00:06.947Z,2.12
2019-05-14T01:02:37.559Z,2.17
2019-05-14T01:05:12.166Z,2.20
2019-05-14T01:07:42.296Z,2.75
2019-05-14T01:10:13.336Z,1.98
2019-05-14T01:12:43.948Z,2.10
2019-05-14T01:15:14.981Z,2.10
2019-05-14T01:17:47.691Z,2.12
2019-05-14T01:20:18.494Z,2.10
2019-05-14T01:22:51.401Z,1.87
2019-05-14T01:25:23.578Z,1.80
2019-05-14T01:27:53.007Z,2.12
2019-05-14T01:30:23.790Z,2.00
2019-05-14T01:32:54.160Z,1.85
2019-05-14T01:35:24.891Z,2.25
2019-05-14T01:37:55.670Z,2.20
2019-05-14T01:40:26.481Z,1.98
2019-05-14T01:42:57.253Z,1.90
2019-05-14T01:45:28.587Z,1.90
2019-05-14T01:48:01.268Z,2.50
2019-05-14T01:50:32.201Z,2.58
2019-05-14T01:53:03.266Z,1.90
2019-05-14T01:55:33.779Z,1.72
2019-05-14T01:58:05.513Z,2.12
2019-05-14T02:00:36.258Z,1.85
2019-05-14T02:03:06.955Z,1.95
2019-05-14T02:05:37.875Z,2.10
2019-05-14T02:08:08.336Z,1.87
2019-05-14T02:10:39.115Z,2.00
2019-05-14T02:13:12.120Z,1.92
2019-05-14T02:15:42.996Z,2.10
2019-05-14T02:18:13.723Z,2.10
2019-05-14T02:20:44.547Z,1.80
2019-05-14T02:23:16.109Z,2.00
2019-05-14T02:25:46.697Z,2.00
2019-05-14T02:28:17.417Z,1.82
2019-05-14T02:30:57.499Z,1.92
2019-05-14T02:33:20.440Z,2.00
2019-05-14T02:35:51.398Z,2.02
2019-05-14T02:38:21.852Z,1.60
2019-05-14T02:40:52.835Z,1.80
2019-05-14T02:43:23.585Z,1.90
2019-05-14T02:46:09.023Z,1.90
2019-05-14T02:48:29.350Z,1.90
2019-05-14T02:50:59.942Z,2.05
2019-05-14T02:53:30.990Z,1.80
2019-05-14T02:56:01.721Z,1.80
2019-05-14T02:58:32.241Z,1.57
2019-05-14T03:01:02.794Z,1.62
2019-05-14T03:03:33.181Z,1.80
2019-05-14T03:06:03.804Z,1.77
2019-05-14T03:08:34.162Z,1.95
2019-05-14T03:11:04.767Z,1.80
2019-05-14T03:13:35.472Z,1.80
2019-05-14T03:16:22.221Z,1.82
2019-05-14T03:18:39.681Z,1.60
2019-05-14T03:21:11.020Z,1.70
2019-05-14T03:23:41.778Z,1.70
2019-05-14T03:26:12.572Z,1.90
2019-05-14T03:28:43.459Z,1.90
2019-05-14T03:31:13.883Z,1.70
2019-05-14T03:33:45.092Z,1.92
2019-05-14T03:36:19.904Z,1.85
2019-05-14T03:38:50.305Z,2.00
2019-05-14T03:41:20.243Z,1.70
2019-05-14T03:43:50.850Z,1.70
2019-05-14T03:46:38.595Z,2.00
2019-05-14T03:48:54.049Z,1.80
2019-05-14T03:51:24.555Z,1.65
2019-05-14T03:54:03.597Z,1.57
2019-05-14T03:56:29.673Z,1.80
2019-05-14T03:59:00.118Z,1.70
2019-05-14T04:01:31.025Z,1.80
2019-05-14T04:04:01.853Z,1.70
2019-05-14T04:06:32.766Z,1.72
2019-05-14T04:09:03.883Z,1.75
2019-05-14T04:11:35.526Z,1.70
2019-05-14T04:14:09.595Z,1.70
2019-05-14T04:16:50.770Z,1.70
2019-05-14T04:19:14.774Z,1.50
2019-05-14T04:21:49.088Z,1.70
2019-05-14T04:24:21.212Z,1.87
2019-05-14T04:27:02.348Z,1.50
2019-05-14T04:29:26.160Z,1.57
2019-05-14T04:32:00.186Z,1.60
2019-05-14T04:34:31.112Z,1.42
2019-05-14T04:37:01.792Z,1.70
2019-05-14T04:39:32.590Z,1.70
2019-05-14T04:42:03.579Z,1.50
2019-05-14T04:44:33.994Z,1.70
2019-05-14T04:47:22.766Z,1.62
2019-05-14T04:49:39.825Z,1.55
2019-05-14T04:52:10.179Z,1.77
2019-05-14T04:54:41.329Z,1.72
2019-05-14T04:57:11.829Z,1.90
2019-05-14T04:59:42.304Z,1.40
2019-05-14T05:02:13.021Z,1.50
2019-05-14T05:04:43.542Z,1.60
2019-05-14T05:07:14.650Z,1.50
2019-05-14T05:09:45.106Z,1.55
2019-05-14T05:12:19.440Z,1.80
2019-05-14T05:14:49.248Z,1.40
2019-05-14T05:17:20.415Z,1.40
2019-05-14T05:19:51.885Z,1.50
2019-05-14T05:22:22.427Z,1.40
2019-05-14T05:24:53.093Z,1.52
2019-05-14T05:27:23.943Z,1.22
2019-05-14T05:29:54.425Z,1.50
2019-05-14T05:32:24.897Z,1.50
2019-05-14T05:34:55.375Z,1.30
2019-05-14T05:37:26.019Z,1.40
2019-05-14T05:39:58.357Z,1.50
2019-05-14T05:42:29.446Z,1.52
2019-05-14T05:45:00.464Z,1.47
2019-05-14T05:47:31.347Z,1.30
2019-05-14T05:50:01.818Z,1.62
2019-05-14T05:52:32.819Z,1.40
2019-05-14T05:55:03.955Z,1.40
2019-05-14T05:57:34.360Z,1.40
2019-05-14T06:00:09.233Z,1.40
2019-05-14T06:02:40.036Z,1.55
2019-05-14T06:05:11.362Z,1.30
2019-05-14T06:07:41.894Z,1.40
2019-05-14T06:10:12.429Z,1.40
2019-05-14T06:12:43.139Z,1.47
2019-05-14T06:15:14.455Z,1.37
2019-05-14T06:17:45.018Z,1.50
2019-05-14T06:20:15.761Z,1.32
2019-05-14T06:22:48.763Z,1.50
2019-05-14T06:25:20.965Z,1.52
2019-05-14T06:27:50.191Z,1.40
2019-05-14T06:30:35.372Z,1.27
2019-05-14T06:33:09.062Z,1.42
2019-05-14T06:35:39.685Z,1.40
2019-05-14T06:38:10.622Z,1.40
2019-05-14T06:40:41.471Z,1.40
2019-05-14T06:43:12.462Z,1.60
2019-05-14T06:45:42.968Z,1.40
2019-05-14T06:48:27.013Z,1.35
2019-05-14T06:50:45.601Z,1.30
2019-05-14T06:53:16.401Z,1.30
2019-05-14T06:55:48.392Z,1.30
2019-05-14T06:58:20.142Z,1.20
2019-05-14T07:00:51.357Z,1.32
2019-05-14T07:03:22.240Z,1.50
2019-05-14T07:05:52.973Z,1.37
2019-05-14T07:08:23.986Z,1.35
2019-05-14T07:10:54.800Z,2.35
2019-05-14T07:13:25.475Z,1.62
2019-05-14T07:15:58.166Z,2.00
2019-05-14T07:18:30.230Z,2.47
2019-05-14T07:21:00.338Z,2.08
2019-05-14T07:23:30.895Z,3.65
2019-05-14T07:26:01.752Z,2.05
2019-05-14T07:28:32.500Z,2.35
2019-05-14T07:31:03.093Z,2.10
2019-05-14T07:33:33.638Z,1.85
2019-05-14T07:36:04.051Z,1.77
2019-05-14T07:38:34.479Z,1.70
2019-05-14T07:41:04.941Z,1.60
2019-05-14T07:43:35.324Z,1.92
2019-05-14T07:46:08.308Z,2.75
2019-05-14T07:48:39.278Z,1.80
2019-05-14T07:51:10.657Z,4.22
2019-05-14T07:53:42.556Z,2.25
2019-05-14T07:56:13.257Z,1.55
2019-05-14T07:58:43.978Z,1.70
2019-05-14T08:01:14.469Z,1.60
2019-05-14T08:03:45.169Z,1.65
2019-05-14T08:06:15.961Z,1.37
2019-05-14T08:08:49.007Z,1.67
2019-05-14T08:11:19.109Z,1.52
2019-05-14T08:13:50.005Z,2.12
2019-05-14T08:16:20.889Z,1.60
2019-05-14T08:18:51.658Z,1.50
2019-05-14T08:21:22.040Z,2.37
2019-05-14T08:23:52.483Z,1.75
2019-05-14T08:26:22.922Z,1.50
2019-05-14T08:28:53.942Z,1.60
2019-05-14T08:31:24.768Z,1.60
2019-05-14T08:33:55.230Z,1.70
2019-05-14T08:36:26.186Z,1.75
2019-05-14T08:38:58.446Z,1.52
2019-05-14T08:41:29.409Z,1.50
2019-05-14T08:44:00.163Z,1.40
2019-05-14T08:46:30.847Z,1.70
2019-05-14T08:49:01.278Z,1.57
2019-05-14T08:51:32.046Z,1.60
2019-05-14T08:54:02.966Z,1.62
2019-05-14T08:56:33.825Z,1.60
2019-05-14T08:59:04.431Z,1.50
2019-05-14T09:01:35.024Z,1.40
2019-05-14T09:04:05.846Z,1.65
2019-05-14T09:06:38.518Z,1.32
2019-05-14T09:09:10.646Z,1.67
2019-05-14T09:11:45.227Z,1.37
2019-05-14T09:14:13.201Z,1.42
2019-05-14T09:16:47.790Z,1.45
2019-05-14T09:19:15.972Z,1.80
2019-05-14T09:21:46.417Z,1.40
2019-05-14T09:24:18.197Z,1.30
2019-05-14T09:26:49.115Z,1.50
2019-05-14T09:29:25.883Z,1.27
2019-05-14T09:31:52.135Z,1.30
2019-05-14T09:34:23.300Z,1.32
2019-05-14T09:36:53.855Z,1.30
2019-05-14T09:39:24.387Z,2.02
2019-05-14T09:41:55.230Z,1.15
2019-05-14T09:44:25.621Z,1.42
2019-05-14T09:46:56.063Z,1.30
2019-05-14T09:49:28.231Z,1.30
2019-05-14T09:51:58.846Z,1.25
2019-05-14T09:54:29.259Z,1.17
2019-05-14T09:57:00.269Z,1.10
2019-05-14T09:59:30.672Z,1.40
2019-05-14T10:02:01.422Z,1.30
2019-05-14T10:04:31.849Z,1.52
2019-05-14T10:07:02.622Z,1.12
2019-05-14T10:09:33.527Z,1.40
2019-05-14T10:12:03.955Z,1.20
2019-05-14T10:14:34.603Z,1.30
2019-05-14T10:17:05.010Z,1.40
2019-05-14T10:19:35.538Z,1.35
2019-05-14T10:22:08.309Z,1.40
2019-05-14T10:24:38.780Z,1.32
2019-05-14T10:27:09.335Z,1.32
2019-05-14T10:29:40.214Z,1.10
2019-05-14T10:32:10.956Z,1.50
2019-05-14T10:34:41.792Z,1.30
2019-05-14T10:37:12.694Z,1.25
2019-05-14T10:39:43.279Z,1.10
2019-05-14T10:42:14.228Z,1.20
2019-05-14T10:44:46.256Z,1.20
2019-05-14T10:47:18.747Z,1.50
2019-05-14T10:49:48.858Z,1.20
2019-05-14T10:52:19.966Z,1.30
2019-05-14T10:54:55.856Z,1.17
2019-05-14T10:57:22.997Z,1.27
2019-05-14T10:59:53.973Z,1.30
2019-05-14T11:02:24.373Z,1.40
2019-05-14T11:04:54.863Z,1.22
2019-05-14T11:07:25.444Z,1.32
2019-05-14T11:09:55.845Z,1.27
2019-05-14T11:12:29.499Z,1.37
2019-05-14T11:14:58.447Z,1.20
2019-05-14T11:17:29.231Z,1.17
2019-05-14T11:20:00.220Z,1.25
2019-05-14T11:22:30.788Z,1.27
2019-05-14T11:25:01.872Z,1.40
2019-05-14T11:27:32.738Z,1.20
2019-05-14T11:30:03.152Z,1.10
2019-05-14T11:32:33.626Z,1.10
2019-05-14T11:35:04.368Z,1.30
2019-05-14T11:37:35.101Z,1.15
2019-05-14T11:40:08.709Z,1.22
2019-05-14T11:42:39.289Z,1.22
2019-05-14T11:45:11.187Z,1.30
2019-05-14T11:47:41.573Z,1.30
2019-05-14T11:50:12.808Z,1.10
2019-05-14T11:52:43.593Z,1.20
2019-05-14T11:55:14.547Z,1.22
2019-05-14T11:57:44.952Z,1.22
2019-05-14T12:00:19.314Z,1.20
2019-05-14T12:02:48.968Z,1.10
2019-05-14T12:05:19.996Z,1.20
2019-05-14T12:07:50.396Z,1.55
2019-05-14T12:10:21.021Z,1.20
2019-05-14T12:12:51.486Z,1.05
2019-05-14T12:15:41.243Z,1.40
2019-05-14T12:18:11.840Z,1.10
2019-05-14T12:20:42.706Z,1.10
2019-05-14T12:23:13.855Z,1.40
2019-05-14T12:25:44.434Z,1.40
2019-05-14T12:28:14.837Z,1.12
2019-05-14T12:30:45.531Z,1.30
2019-05-14T12:33:19.362Z,1.17
2019-05-14T12:35:49.496Z,1.35
2019-05-14T12:38:20.408Z,1.20
2019-05-14T12:40:50.830Z,1.20
2019-05-14T12:43:21.208Z,1.30
2019-05-14T12:45:51.766Z,1.10
2019-05-14T12:48:22.601Z,1.17
2019-05-14T12:50:53.024Z,1.20
2019-05-14T12:53:23.449Z,1.30
2019-05-14T12:55:54.233Z,1.00
2019-05-14T12:58:24.634Z,1.30
2019-05-14T13:00:55.608Z,1.22
2019-05-14T13:03:28.376Z,1.20
2019-05-14T13:05:58.723Z,1.25
2019-05-14T13:08:29.498Z,1.20
2019-05-14T13:10:59.898Z,1.10
2019-05-14T13:13:30.642Z,1.27
2019-05-14T13:16:04.239Z,1.12
2019-05-14T13:18:33.439Z,1.20
2019-05-14T13:21:03.796Z,1.20
2019-05-14T13:23:34.782Z,1.20
2019-05-14T13:26:05.662Z,1.40
2019-05-14T13:28:39.284Z,1.22
2019-05-14T13:31:09.148Z,1.30
2019-05-14T13:33:39.772Z,1.30
2019-05-14T13:36:10.698Z,1.27
2019-05-14T13:38:41.624Z,1.10
2019-05-14T13:41:12.375Z,1.50
2019-05-14T13:43:42.847Z,1.25
2019-05-14T13:46:15.188Z,1.35
2019-05-14T13:48:45.675Z,1.20
2019-05-14T13:51:16.453Z,1.30
2019-05-14T13:53:49.645Z,1.27
2019-05-14T13:56:19.063Z,1.20
2019-05-14T13:58:49.661Z,1.27
2019-05-14T14:01:20.304Z,1.30
2019-05-14T14:04:04.775Z,1.47
2019-05-14T14:06:23.240Z,1.32
2019-05-14T14:08:54.068Z,1.20
2019-05-14T14:11:24.473Z,1.30
2019-05-14T14:13:55.181Z,1.27
2019-05-14T14:16:28.528Z,1.30
2019-05-14T14:19:03.295Z,1.52
2019-05-14T14:21:31.256Z,1.30
2019-05-14T14:24:02.075Z,1.30
2019-05-14T14:26:32.599Z,1.45
2019-05-14T14:29:03.004Z,1.40
2019-05-14T14:31:33.430Z,1.50
2019-05-14T14:34:03.945Z,1.60
2019-05-14T14:36:34.471Z,1.40
2019-05-14T14:39:06.054Z,1.40
2019-05-14T14:41:38.407Z,1.35
2019-05-14T14:44:09.001Z,1.55
2019-05-14T14:46:39.540Z,1.22
2019-05-14T14:49:10.796Z,4.87
2019-05-14T14:51:44.800Z,2.83
2019-05-14T14:54:16.095Z,1.30
2019-05-14T14:56:45.338Z,1.60
2019-05-14T14:59:18.635Z,1.42
2019-05-14T15:01:50.249Z,1.40
2019-05-14T15:04:21.435Z,1.95
2019-05-14T15:06:52.415Z,1.45
2019-05-14T15:09:23.626Z,1.35
2019-05-14T15:11:54.115Z,1.30
2019-05-14T15:14:24.588Z,1.30
2019-05-14T15:16:55.013Z,2.30
2019-05-14T15:19:25.631Z,1.50
2019-05-14T15:21:59.107Z,1.90
2019-05-14T15:24:28.940Z,2.55
2019-05-14T15:27:07.943Z,9.15
2019-05-14T15:29:32.398Z,3.10
2019-05-14T15:32:02.967Z,2.92
2019-05-14T15:34:33.759Z,2.35
2019-05-14T15:37:04.376Z,2.90
2019-05-14T15:39:34.828Z,2.72
2019-05-14T15:42:06.740Z,4.00
2019-05-14T15:44:48.769Z,2.62
2019-05-14T15:47:11.636Z,2.35
2019-05-14T15:49:41.304Z,2.40
2019-05-14T15:52:11.673Z,2.12
2019-05-14T15:54:46.735Z,2.47
2019-05-14T15:57:14.057Z,2.20
2019-05-14T15:59:44.785Z,2.37
2019-05-14T16:02:15.337Z,2.35
2019-05-14T16:04:45.782Z,2.00
2019-05-14T16:07:18.467Z,2.12
2019-05-14T16:09:49.596Z,2.67
2019-05-14T16:12:20.340Z,3.45
2019-05-14T16:14:50.803Z,2.37
2019-05-14T16:17:25.328Z,2.40
2019-05-14T16:19:53.188Z,2.35
2019-05-14T16:22:23.712Z,2.30
2019-05-14T16:24:57.102Z,2.45
2019-05-14T16:27:29.610Z,2.40
2019-05-14T16:29:58.744Z,2.10
2019-05-14T16:32:29.299Z,2.72
2019-05-14T16:35:00.223Z,2.25
2019-05-14T16:37:31.421Z,1.90
2019-05-14T16:40:01.806Z,2.37
2019-05-14T16:42:32.197Z,2.08
2019-05-14T16:45:04.617Z,2.22
2019-05-14T16:47:35.070Z,2.47
2019-05-14T16:50:08.877Z,2.70
2019-05-14T16:52:42.300Z,3.12
2019-05-14T16:55:22.499Z,2.92
2019-05-14T16:57:43.676Z,2.90
2019-05-14T17:00:14.451Z,5.40
2019-05-14T17:02:44.859Z,7.12
2019-05-14T17:05:15.412Z,5.35
2019-05-14T17:07:48.860Z,5.60
2019-05-14T17:10:18.951Z,3.90
2019-05-14T17:12:56.567Z,4.58
2019-05-14T17:15:21.583Z,5.95
2019-05-14T17:17:52.187Z,2.95
2019-05-14T17:20:24.386Z,2.85
2019-05-14T17:22:55.855Z,4.62
2019-05-14T17:25:29.560Z,5.60
2019-05-14T17:27:59.419Z,6.72
2019-05-14T17:30:30.074Z,7.35
2019-05-14T17:33:00.516Z,2.67
2019-05-14T17:35:30.948Z,4.12
2019-05-14T17:38:01.582Z,2.42
2019-05-14T17:40:32.132Z,2.60
2019-05-14T17:43:02.643Z,2.80
2019-05-14T17:45:33.846Z,4.42
2019-05-14T17:48:04.291Z,3.83
2019-05-14T17:50:34.669Z,9.38
2019-05-14T17:53:05.091Z,4.25
2019-05-14T17:55:44.599Z,4.78
2019-05-14T17:58:12.814Z,2.45
2019-05-14T18:00:41.461Z,2.52
2019-05-14T18:03:12.712Z,2.75
2019-05-14T18:05:43.223Z,5.15
2019-05-14T18:08:13.615Z,3.92
2019-05-14T18:10:44.093Z,3.00
2019-05-14T18:13:15.236Z,10.35
2019-05-14T18:15:48.479Z,3.42
2019-05-14T18:18:18.546Z,2.40
2019-05-14T18:20:49.089Z,2.98
2019-05-14T18:23:19.618Z,6.10
2019-05-14T18:26:04.066Z,2.52
2019-05-14T18:28:21.916Z,2.80
2019-05-14T18:30:58.576Z,2.70
2019-05-14T18:33:31.194Z,2.40
2019-05-14T18:36:00.080Z,2.80
2019-05-14T18:38:30.481Z,3.22
2019-05-14T18:41:01.089Z,3.27
2019-05-14T18:43:33.955Z,2.27
2019-05-14T18:46:04.550Z,2.62
2019-05-14T18:48:34.947Z,3.58
2019-05-14T18:51:08.634Z,2.77
2019-05-14T18:53:38.412Z,2.40
2019-05-14T18:56:20.337Z,3.00
2019-05-14T18:58:41.113Z,2.58
2019-05-14T19:01:11.847Z,3.22
2019-05-14T19:03:42.258Z,2.77
2019-05-14T19:06:12.711Z,3.30
2019-05-14T19:08:43.876Z,3.27
2019-05-14T19:11:15.389Z,3.15
2019-05-14T19:13:48.144Z,3.00
2019-05-14T19:16:18.741Z,3.00
2019-05-14T19:18:51.075Z,2.98
2019-05-14T19:21:21.628Z,3.10
2019-05-14T19:23:52.035Z,4.83
2019-05-14T19:26:33.344Z,3.02
2019-05-14T19:28:55.450Z,3.00
2019-05-14T19:31:27.784Z,3.27
2019-05-14T19:33:57.747Z,2.80
2019-05-14T19:36:28.263Z,2.90
2019-05-14T19:38:58.652Z,6.45
2019-05-14T19:41:29.281Z,5.00
2019-05-14T19:43:59.794Z,5.62
2019-05-14T19:46:30.212Z,2.92
2019-05-14T19:49:00.670Z,2.70
2019-05-14T19:51:32.875Z,2.98
2019-05-14T19:54:03.278Z,5.87
2019-05-14T19:56:47.113Z,2.95
2019-05-14T19:59:05.768Z,3.08
2019-05-14T20:01:38.583Z,2.90
2019-05-14T20:04:09.535Z,2.98
2019-05-14T20:06:40.017Z,4.45
